sensor_id;sensor_type;location;lat;lon;timestamp;pressure;altitude;pressure_sealevel;temperature;humidity
25944;BME280;13742;49.306;8.636;2022-11-15T00:00:26;100268.28;;;9.93;100.00
25944;BME280;13742;49.306;8.636;2022-11-15T00:01:26;100265.67;;;9.92;100.00
25944;BME280;13742;49.306;8.636;2022-11-15T00:02:26;100267.05;;;9.92;100.00
25944;BME280;13742;49.306;8.636;2022-11-15T00:03:26;100266.60;;;9.92;100.00
25944;BME280;13742;49.306;8.636;2022-11-15T00:04:26;100264.46;;;9.92;100.00
25944;BME280;13742;49.306;8.636;2022-11-15T00:05:26;100260.48;;;9.91;100.00
25944;BME280;13742;49.306;8.636;2022-11-15T00:06:26;100262.38;;;9.92;100.00
25944;BME280;13742;49.306;8.636;2022-11-15T00:07:26;100265.66;;;9.92;100.00
25944;BME280;13742;49.306;8.636;2022-11-15T00:08:28;100266.47;;;9.91;100.00
25944;BME280;13742;49.306;8.636;2022-11-15T00:09:26;100262.95;;;9.91;100.00
25944;BME280;13742;49.306;8.636;2022-11-15T00:10:26;100258.14;;;9.90;100.00
25944;BME280;13742;49.306;8.636;2022-11-15T00:11:26;100257.19;;;9.89;100.00
25944;BME280;13742;49.306;8.636;2022-11-15T00:12:29;100257.34;;;9.89;100.00
25944;BME280;13742;49.306;8.636;2022-11-15T00:13:26;100257.08;;;9.89;100.00
25944;BME280;13742;49.306;8.636;2022-11-15T00:14:26;100259.35;;;9.90;100.00
25944;BME280;13742;49.306;8.636;2022-11-15T00:15:26;100257.34;;;9.89;100.00
25944;BME280;13742;49.306;8.636;2022-11-15T00:16:26;100253.36;;;9.90;100.00
25944;BME280;13742;49.306;8.636;2022-11-15T00:17:26;100253.86;;;9.90;100.00
25944;BME280;13742;49.306;8.636;2022-11-15T00:18:26;100256.10;;;9.92;100.00
25944;BME280;13742;49.306;8.636;2022-11-15T00:19:26;100256.34;;;9.93;100.00
25944;BME280;13742;49.306;8.636;2022-11-15T00:20:26;100253.16;;;9.93;100.00
25944;BME280;13742;49.306;8.636;2022-11-15T00:21:27;100251.29;;;9.93;100.00
25944;BME280;13742;49.306;8.636;2022-11-15T00:22:31;100249.26;;;9.93;100.00
25944;BME280;13742;49.306;8.636;2022-11-15T00:23:26;100253.63;;;9.94;100.00
25944;BME280;13742;49.306;8.636;2022-11-15T00:24:26;100251.61;;;9.95;100.00
25944;BME280;13742;49.306;8.636;2022-11-15T00:25:27;100250.76;;;9.96;100.00
25944;BME280;13742;49.306;8.636;2022-11-15T00:26:26;100251.55;;;9.97;100.00
25944;BME280;13742;49.306;8.636;2022-11-15T00:27:27;100252.02;;;9.98;100.00
25944;BME280;13742;49.306;8.636;2022-11-15T00:28:26;100252.34;;;9.98;100.00
25944;BME280;13742;49.306;8.636;2022-11-15T00:29:26;100250.34;;;9.99;100.00
25944;BME280;13742;49.306;8.636;2022-11-15T00:30:26;100250.83;;;9.99;100.00
25944;BME280;13742;49.306;8.636;2022-11-15T00:31:26;100249.07;;;10.00;100.00
25944;BME280;13742;49.306;8.636;2022-11-15T00:32:26;100250.94;;;10.00;100.00
25944;BME280;13742;49.306;8.636;2022-11-15T00:33:26;100250.61;;;10.00;100.00
25944;BME280;13742;49.306;8.636;2022-11-15T00:34:26;100247.37;;;10.00;99.90
25944;BME280;13742;49.306;8.636;2022-11-15T00:35:27;100245.77;;;10.00;100.00
25944;BME280;13742;49.306;8.636;2022-11-15T00:36:26;100245.19;;;10.00;100.00
25944;BME280;13742;49.306;8.636;2022-11-15T00:37:26;100243.45;;;10.01;99.96
25944;BME280;13742;49.306;8.636;2022-11-15T00:38:30;100244.03;;;10.02;99.93
25944;BME280;13742;49.306;8.636;2022-11-15T00:39:26;100238.97;;;10.03;99.71
25944;BME280;13742;49.306;8.636;2022-11-15T00:40:26;100237.43;;;10.02;99.38
25944;BME280;13742;49.306;8.636;2022-11-15T00:41:26;100237.51;;;10.03;99.47
25944;BME280;13742;49.306;8.636;2022-11-15T00:42:26;100236.33;;;10.03;99.23
25944;BME280;13742;49.306;8.636;2022-11-15T00:43:26;100236.94;;;10.03;99.14
25944;BME280;13742;49.306;8.636;2022-11-15T00:44:26;100235.89;;;10.03;99.09
25944;BME280;13742;49.306;8.636;2022-11-15T00:45:26;100236.00;;;10.03;98.98
25944;BME280;13742;49.306;8.636;2022-11-15T00:46:26;100236.84;;;10.03;99.08
25944;BME280;13742;49.306;8.636;2022-11-15T00:47:26;100234.34;;;10.04;99.07
25944;BME280;13742;49.306;8.636;2022-11-15T00:48:26;100233.63;;;10.04;99.10
25944;BME280;13742;49.306;8.636;2022-11-15T00:49:26;100231.81;;;10.04;98.98
25944;BME280;13742;49.306;8.636;2022-11-15T00:50:26;100229.64;;;10.06;98.71
25944;BME280;13742;49.306;8.636;2022-11-15T00:51:26;100225.43;;;10.07;98.21
25944;BME280;13742;49.306;8.636;2022-11-15T00:52:26;100229.57;;;10.07;97.99
25944;BME280;13742;49.306;8.636;2022-11-15T00:53:26;100226.25;;;10.07;98.11
25944;BME280;13742;49.306;8.636;2022-11-15T00:54:26;100227.08;;;10.07;98.05
25944;BME280;13742;49.306;8.636;2022-11-15T00:55:26;100225.75;;;10.06;97.99
25944;BME280;13742;49.306;8.636;2022-11-15T00:56:26;100223.53;;;10.06;98.05
25944;BME280;13742;49.306;8.636;2022-11-15T00:57:26;100225.68;;;10.06;98.03
25944;BME280;13742;49.306;8.636;2022-11-15T00:58:26;100220.89;;;10.05;98.12
25944;BME280;13742;49.306;8.636;2022-11-15T00:59:26;100218.86;;;10.05;98.21
25944;BME280;13742;49.306;8.636;2022-11-15T01:00:26;100217.77;;;10.05;98.31
25944;BME280;13742;49.306;8.636;2022-11-15T01:01:26;100217.05;;;10.05;98.40
25944;BME280;13742;49.306;8.636;2022-11-15T01:02:26;100219.41;;;10.05;98.30
25944;BME280;13742;49.306;8.636;2022-11-15T01:03:26;100217.16;;;10.05;98.18
25944;BME280;13742;49.306;8.636;2022-11-15T01:04:26;100217.30;;;10.04;97.98
25944;BME280;13742;49.306;8.636;2022-11-15T01:05:26;100218.42;;;10.05;98.21
25944;BME280;13742;49.306;8.636;2022-11-15T01:06:26;100214.60;;;10.04;98.29
25944;BME280;13742;49.306;8.636;2022-11-15T01:07:26;100215.59;;;10.04;97.95
25944;BME280;13742;49.306;8.636;2022-11-15T01:08:26;100217.63;;;10.04;97.94
25944;BME280;13742;49.306;8.636;2022-11-15T01:09:26;100217.27;;;10.04;97.87
25944;BME280;13742;49.306;8.636;2022-11-15T01:10:26;100211.17;;;10.04;97.83
25944;BME280;13742;49.306;8.636;2022-11-15T01:11:26;100212.44;;;10.03;97.96
25944;BME280;13742;49.306;8.636;2022-11-15T01:12:26;100219.61;;;10.04;97.75
25944;BME280;13742;49.306;8.636;2022-11-15T01:13:26;100217.91;;;10.03;97.64
25944;BME280;13742;49.306;8.636;2022-11-15T01:14:26;100222.34;;;10.02;97.52
25944;BME280;13742;49.306;8.636;2022-11-15T01:15:26;100221.52;;;10.01;97.87
25944;BME280;13742;49.306;8.636;2022-11-15T01:16:26;100220.69;;;10.02;97.93
25944;BME280;13742;49.306;8.636;2022-11-15T01:17:26;100216.41;;;10.02;97.84
25944;BME280;13742;49.306;8.636;2022-11-15T01:18:26;100213.67;;;10.02;97.70
25944;BME280;13742;49.306;8.636;2022-11-15T01:19:26;100216.41;;;10.01;97.45
25944;BME280;13742;49.306;8.636;2022-11-15T01:20:26;100213.21;;;10.02;97.59
25944;BME280;13742;49.306;8.636;2022-11-15T01:21:26;100211.38;;;10.01;97.65
25944;BME280;13742;49.306;8.636;2022-11-15T01:22:26;100211.48;;;10.01;97.29
25944;BME280;13742;49.306;8.636;2022-11-15T01:23:26;100211.02;;;10.00;97.29
25944;BME280;13742;49.306;8.636;2022-11-15T01:24:26;100212.84;;;9.99;97.24
25944;BME280;13742;49.306;8.636;2022-11-15T01:25:26;100212.05;;;9.98;97.11
25944;BME280;13742;49.306;8.636;2022-11-15T01:26:26;100213.69;;;9.98;97.08
25944;BME280;13742;49.306;8.636;2022-11-15T01:27:26;100210.81;;;9.97;97.25
25944;BME280;13742;49.306;8.636;2022-11-15T01:28:29;100209.91;;;9.96;97.20
25944;BME280;13742;49.306;8.636;2022-11-15T01:29:26;100209.83;;;9.95;97.01
25944;BME280;13742;49.306;8.636;2022-11-15T01:30:26;100213.34;;;9.95;97.25
25944;BME280;13742;49.306;8.636;2022-11-15T01:31:26;100209.89;;;9.93;97.33
25944;BME280;13742;49.306;8.636;2022-11-15T01:32:26;100209.28;;;9.93;97.38
25944;BME280;13742;49.306;8.636;2022-11-15T01:33:26;100206.68;;;9.92;97.28
25944;BME280;13742;49.306;8.636;2022-11-15T01:34:26;100206.55;;;9.91;97.30
25944;BME280;13742;49.306;8.636;2022-11-15T01:35:26;100204.59;;;9.90;97.54
25944;BME280;13742;49.306;8.636;2022-11-15T01:36:26;100203.20;;;9.89;97.50
25944;BME280;13742;49.306;8.636;2022-11-15T01:37:26;100204.72;;;9.88;97.48
25944;BME280;13742;49.306;8.636;2022-11-15T01:38:26;100203.55;;;9.88;97.80
25944;BME280;13742;49.306;8.636;2022-11-15T01:39:26;100200.85;;;9.85;97.73
25944;BME280;13742;49.306;8.636;2022-11-15T01:40:26;100198.36;;;9.85;97.66
25944;BME280;13742;49.306;8.636;2022-11-15T01:41:27;100200.48;;;9.83;97.41
25944;BME280;13742;49.306;8.636;2022-11-15T01:42:26;100196.58;;;9.81;97.28
25944;BME280;13742;49.306;8.636;2022-11-15T01:43:27;100195.16;;;9.82;97.32
25944;BME280;13742;49.306;8.636;2022-11-15T01:45:26;100184.63;;;9.80;97.72
25944;BME280;13742;49.306;8.636;2022-11-15T01:47:28;100183.70;;;9.81;97.49
25944;BME280;13742;49.306;8.636;2022-11-15T01:48:29;100184.74;;;9.80;97.32
25944;BME280;13742;49.306;8.636;2022-11-15T01:49:26;100181.64;;;9.80;97.46
25944;BME280;13742;49.306;8.636;2022-11-15T01:50:29;100179.63;;;9.80;97.50
25944;BME280;13742;49.306;8.636;2022-11-15T01:51:26;100179.91;;;9.81;97.56
25944;BME280;13742;49.306;8.636;2022-11-15T01:52:26;100178.99;;;9.81;97.46
25944;BME280;13742;49.306;8.636;2022-11-15T01:53:26;100178.17;;;9.81;97.44
25944;BME280;13742;49.306;8.636;2022-11-15T01:54:26;100174.16;;;9.81;97.41
25944;BME280;13742;49.306;8.636;2022-11-15T01:55:26;100180.31;;;9.81;97.56
25944;BME280;13742;49.306;8.636;2022-11-15T01:56:27;100178.83;;;9.81;97.31
25944;BME280;13742;49.306;8.636;2022-11-15T01:57:26;100179.38;;;9.81;97.19
25944;BME280;13742;49.306;8.636;2022-11-15T01:58:26;100176.61;;;9.81;97.32
25944;BME280;13742;49.306;8.636;2022-11-15T01:59:26;100178.48;;;9.80;97.23
25944;BME280;13742;49.306;8.636;2022-11-15T02:00:26;100181.53;;;9.79;97.32
25944;BME280;13742;49.306;8.636;2022-11-15T02:01:26;100178.06;;;9.79;97.15
25944;BME280;13742;49.306;8.636;2022-11-15T02:02:26;100178.23;;;9.79;97.20
25944;BME280;13742;49.306;8.636;2022-11-15T02:03:26;100174.66;;;9.79;97.25
25944;BME280;13742;49.306;8.636;2022-11-15T02:04:30;100174.75;;;9.78;97.34
25944;BME280;13742;49.306;8.636;2022-11-15T02:05:26;100173.19;;;9.78;97.26
25944;BME280;13742;49.306;8.636;2022-11-15T02:06:26;100176.56;;;9.79;97.32
25944;BME280;13742;49.306;8.636;2022-11-15T02:07:26;100173.84;;;9.78;97.11
25944;BME280;13742;49.306;8.636;2022-11-15T02:08:26;100175.22;;;9.78;97.47
25944;BME280;13742;49.306;8.636;2022-11-15T02:09:26;100168.81;;;9.77;97.09
25944;BME280;13742;49.306;8.636;2022-11-15T02:10:27;100165.36;;;9.77;97.32
25944;BME280;13742;49.306;8.636;2022-11-15T02:11:26;100166.13;;;9.76;97.43
25944;BME280;13742;49.306;8.636;2022-11-15T02:12:26;100163.05;;;9.76;97.45
25944;BME280;13742;49.306;8.636;2022-11-15T02:13:26;100165.36;;;9.76;97.38
25944;BME280;13742;49.306;8.636;2022-11-15T02:14:26;100165.50;;;9.76;97.33
25944;BME280;13742;49.306;8.636;2022-11-15T02:15:26;100163.96;;;9.75;97.28
25944;BME280;13742;49.306;8.636;2022-11-15T02:17:41;100158.11;;;9.74;97.37
25944;BME280;13742;49.306;8.636;2022-11-15T02:18:27;100155.72;;;9.73;97.22
25944;BME280;13742;49.306;8.636;2022-11-15T02:29:14;100144.16;;;9.68;97.61
25944;BME280;13742;49.306;8.636;2022-11-15T02:29:29;100142.18;;;9.68;97.51
25944;BME280;13742;49.306;8.636;2022-11-15T02:31:28;100134.52;;;9.65;97.42
25944;BME280;13742;49.306;8.636;2022-11-15T02:32:30;100138.81;;;9.64;97.49
25944;BME280;13742;49.306;8.636;2022-11-15T02:33:46;100135.84;;;9.64;97.63
25944;BME280;13742;49.306;8.636;2022-11-15T02:34:28;100129.58;;;9.64;97.77
25944;BME280;13742;49.306;8.636;2022-11-15T02:39:34;100127.71;;;9.65;97.64
25944;BME280;13742;49.306;8.636;2022-11-15T02:40:34;100129.83;;;9.64;97.60
25944;BME280;13742;49.306;8.636;2022-11-15T02:42:35;100132.55;;;9.63;97.50
25944;BME280;13742;49.306;8.636;2022-11-15T02:43:36;100130.28;;;9.62;97.52
25944;BME280;13742;49.306;8.636;2022-11-15T02:46:42;100124.27;;;9.61;97.52
25944;BME280;13742;49.306;8.636;2022-11-15T02:47:26;100120.53;;;9.61;97.56
25944;BME280;13742;49.306;8.636;2022-11-15T02:48:26;100121.02;;;9.61;97.50
25944;BME280;13742;49.306;8.636;2022-11-15T02:49:28;100120.80;;;9.61;97.59
25944;BME280;13742;49.306;8.636;2022-11-15T02:50:27;100118.58;;;9.60;97.52
25944;BME280;13742;49.306;8.636;2022-11-15T02:51:26;100117.13;;;9.61;97.72
25944;BME280;13742;49.306;8.636;2022-11-15T02:52:26;100114.29;;;9.62;97.74
25944;BME280;13742;49.306;8.636;2022-11-15T02:53:26;100112.42;;;9.62;97.77
25944;BME280;13742;49.306;8.636;2022-11-15T02:54:29;100113.70;;;9.63;97.89
25944;BME280;13742;49.306;8.636;2022-11-15T02:55:27;100112.20;;;9.62;97.65
25944;BME280;13742;49.306;8.636;2022-11-15T02:56:26;100113.54;;;9.63;97.57
25944;BME280;13742;49.306;8.636;2022-11-15T03:00:26;100109.43;;;9.61;97.38
25944;BME280;13742;49.306;8.636;2022-11-15T03:03:15;100110.50;;;9.62;97.41
25944;BME280;13742;49.306;8.636;2022-11-15T03:05:32;100107.39;;;9.63;97.46
25944;BME280;13742;49.306;8.636;2022-11-15T03:07:29;100104.25;;;9.63;97.50
25944;BME280;13742;49.306;8.636;2022-11-15T03:08:29;100104.80;;;9.63;97.53
25944;BME280;13742;49.306;8.636;2022-11-15T03:10:32;100102.27;;;9.63;97.67
25944;BME280;13742;49.306;8.636;2022-11-15T03:11:26;100101.92;;;9.62;97.51
25944;BME280;13742;49.306;8.636;2022-11-15T03:13:27;100103.48;;;9.63;97.63
25944;BME280;13742;49.306;8.636;2022-11-15T03:14:29;100100.06;;;9.62;97.63
25944;BME280;13742;49.306;8.636;2022-11-15T03:15:29;100097.80;;;9.62;97.69
25944;BME280;13742;49.306;8.636;2022-11-15T03:16:28;100098.39;;;9.61;97.65
25944;BME280;13742;49.306;8.636;2022-11-15T03:17:30;100097.67;;;9.61;97.69
25944;BME280;13742;49.306;8.636;2022-11-15T03:19:30;100095.91;;;9.61;97.65
25944;BME280;13742;49.306;8.636;2022-11-15T03:20:26;100095.58;;;9.61;97.60
25944;BME280;13742;49.306;8.636;2022-11-15T03:21:26;100097.73;;;9.61;97.73
25944;BME280;13742;49.306;8.636;2022-11-15T03:22:27;100093.11;;;9.61;97.67
25944;BME280;13742;49.306;8.636;2022-11-15T03:23:26;100097.51;;;9.61;97.63
25944;BME280;13742;49.306;8.636;2022-11-15T03:24:26;100099.54;;;9.61;97.63
25944;BME280;13742;49.306;8.636;2022-11-15T03:25:26;100098.83;;;9.61;97.63
25944;BME280;13742;49.306;8.636;2022-11-15T03:26:26;100098.30;;;9.62;97.41
25944;BME280;13742;49.306;8.636;2022-11-15T03:27:27;100095.25;;;9.61;97.29
25944;BME280;13742;49.306;8.636;2022-11-15T03:28:29;100091.20;;;9.62;97.44
25944;BME280;13742;49.306;8.636;2022-11-15T03:29:27;100091.68;;;9.61;97.30
25944;BME280;13742;49.306;8.636;2022-11-15T03:30:26;100095.98;;;9.62;97.29
25944;BME280;13742;49.306;8.636;2022-11-15T03:31:32;100094.40;;;9.62;97.27
25944;BME280;13742;49.306;8.636;2022-11-15T03:32:29;100092.45;;;9.61;97.41
25944;BME280;13742;49.306;8.636;2022-11-15T03:33:26;100095.55;;;9.62;97.52
25944;BME280;13742;49.306;8.636;2022-11-15T03:34:27;100098.24;;;9.62;97.55
25944;BME280;13742;49.306;8.636;2022-11-15T03:35:27;100095.91;;;9.63;97.64
25944;BME280;13742;49.306;8.636;2022-11-15T03:36:26;100096.80;;;9.64;97.43
25944;BME280;13742;49.306;8.636;2022-11-15T03:37:29;100097.59;;;9.64;97.45
25944;BME280;13742;49.306;8.636;2022-11-15T03:38:26;100093.48;;;9.65;97.50
25944;BME280;13742;49.306;8.636;2022-11-15T03:39:26;100092.63;;;9.66;97.20
25944;BME280;13742;49.306;8.636;2022-11-15T03:44:31;100091.23;;;9.69;96.91
25944;BME280;13742;49.306;8.636;2022-11-15T03:46:27;100085.86;;;9.71;96.79
25944;BME280;13742;49.306;8.636;2022-11-15T03:47:27;100087.72;;;9.72;96.81
25944;BME280;13742;49.306;8.636;2022-11-15T03:48:27;100089.59;;;9.73;96.69
25944;BME280;13742;49.306;8.636;2022-11-15T03:49:27;100085.82;;;9.73;96.71
25944;BME280;13742;49.306;8.636;2022-11-15T03:50:26;100088.89;;;9.73;96.60
25944;BME280;13742;49.306;8.636;2022-11-15T03:51:26;100091.58;;;9.75;96.43
25944;BME280;13742;49.306;8.636;2022-11-15T03:52:26;100088.55;;;9.75;96.48
25944;BME280;13742;49.306;8.636;2022-11-15T03:53:26;100084.98;;;9.76;96.53
25944;BME280;13742;49.306;8.636;2022-11-15T03:54:26;100086.71;;;9.77;96.47
25944;BME280;13742;49.306;8.636;2022-11-15T03:55:26;100086.97;;;9.78;96.67
25944;BME280;13742;49.306;8.636;2022-11-15T03:56:26;100085.38;;;9.79;96.38
25944;BME280;13742;49.306;8.636;2022-11-15T03:57:26;100087.02;;;9.80;96.33
25944;BME280;13742;49.306;8.636;2022-11-15T03:58:26;100086.80;;;9.80;96.31
25944;BME280;13742;49.306;8.636;2022-11-15T03:59:26;100084.13;;;9.81;96.33
25944;BME280;13742;49.306;8.636;2022-11-15T04:00:26;100088.49;;;9.82;96.21
25944;BME280;13742;49.306;8.636;2022-11-15T04:01:26;100087.20;;;9.83;96.18
25944;BME280;13742;49.306;8.636;2022-11-15T04:02:26;100089.27;;;9.85;95.89
25944;BME280;13742;49.306;8.636;2022-11-15T04:03:26;100089.60;;;9.86;95.94
25944;BME280;13742;49.306;8.636;2022-11-15T04:04:26;100089.56;;;9.86;95.78
25944;BME280;13742;49.306;8.636;2022-11-15T04:05:26;100094.59;;;9.87;95.68
25944;BME280;13742;49.306;8.636;2022-11-15T04:06:26;100093.34;;;9.88;95.78
25944;BME280;13742;49.306;8.636;2022-11-15T04:07:26;100092.60;;;9.89;95.72
25944;BME280;13742;49.306;8.636;2022-11-15T04:08:26;100087.55;;;9.89;95.82
25944;BME280;13742;49.306;8.636;2022-11-15T04:09:26;100090.18;;;9.89;95.75
25944;BME280;13742;49.306;8.636;2022-11-15T04:10:26;100084.28;;;9.88;95.67
25944;BME280;13742;49.306;8.636;2022-11-15T04:11:26;100087.80;;;9.91;95.95
25944;BME280;13742;49.306;8.636;2022-11-15T04:12:31;100086.21;;;9.91;95.95
25944;BME280;13742;49.306;8.636;2022-11-15T04:13:26;100083.30;;;9.91;96.09
25944;BME280;13742;49.306;8.636;2022-11-15T04:14:26;100086.34;;;9.92;95.80
25944;BME280;13742;49.306;8.636;2022-11-15T04:15:26;100081.17;;;9.92;95.74
25944;BME280;13742;49.306;8.636;2022-11-15T04:16:26;100083.34;;;9.93;95.51
25944;BME280;13742;49.306;8.636;2022-11-15T04:17:26;100080.39;;;9.94;95.25
25944;BME280;13742;49.306;8.636;2022-11-15T04:18:26;100080.86;;;9.95;95.18
25944;BME280;13742;49.306;8.636;2022-11-15T04:19:31;100078.13;;;9.96;95.07
25944;BME280;13742;49.306;8.636;2022-11-15T04:20:31;100079.34;;;9.96;95.26
25944;BME280;13742;49.306;8.636;2022-11-15T04:21:31;100081.84;;;9.95;95.26
25944;BME280;13742;49.306;8.636;2022-11-15T04:22:31;100083.81;;;9.97;95.03
25944;BME280;13742;49.306;8.636;2022-11-15T04:23:31;100085.84;;;9.97;95.18
25944;BME280;13742;49.306;8.636;2022-11-15T04:24:26;100087.95;;;9.98;95.17
25944;BME280;13742;49.306;8.636;2022-11-15T04:25:26;100085.83;;;9.98;95.06
25944;BME280;13742;49.306;8.636;2022-11-15T04:26:26;100085.28;;;9.98;94.94
25944;BME280;13742;49.306;8.636;2022-11-15T04:27:26;100082.37;;;9.98;95.36
25944;BME280;13742;49.306;8.636;2022-11-15T04:28:26;100083.25;;;9.99;95.14
25944;BME280;13742;49.306;8.636;2022-11-15T04:29:31;100085.23;;;10.00;94.96
25944;BME280;13742;49.306;8.636;2022-11-15T04:30:26;100090.47;;;10.00;94.89
25944;BME280;13742;49.306;8.636;2022-11-15T04:31:26;100087.84;;;10.00;94.88
25944;BME280;13742;49.306;8.636;2022-11-15T04:32:26;100086.34;;;10.01;94.62
25944;BME280;13742;49.306;8.636;2022-11-15T04:33:26;100084.66;;;10.02;94.73
25944;BME280;13742;49.306;8.636;2022-11-15T04:34:26;100081.77;;;10.03;94.85
25944;BME280;13742;49.306;8.636;2022-11-15T04:35:26;100075.59;;;10.02;95.03
25944;BME280;13742;49.306;8.636;2022-11-15T04:36:31;100077.27;;;10.03;94.91
25944;BME280;13742;49.306;8.636;2022-11-15T04:37:26;100069.09;;;10.03;95.09
25944;BME280;13742;49.306;8.636;2022-11-15T04:38:26;100072.47;;;10.04;94.89
25944;BME280;13742;49.306;8.636;2022-11-15T04:39:26;100073.66;;;10.03;95.06
25944;BME280;13742;49.306;8.636;2022-11-15T04:40:26;100072.69;;;10.04;95.16
25944;BME280;13742;49.306;8.636;2022-11-15T04:41:26;100071.15;;;10.04;95.03
25944;BME280;13742;49.306;8.636;2022-11-15T04:42:26;100070.81;;;10.04;94.88
25944;BME280;13742;49.306;8.636;2022-11-15T04:43:26;100072.14;;;10.04;95.08
25944;BME280;13742;49.306;8.636;2022-11-15T04:44:26;100071.52;;;10.03;94.94
25944;BME280;13742;49.306;8.636;2022-11-15T04:45:26;100071.75;;;10.04;95.22
25944;BME280;13742;49.306;8.636;2022-11-15T04:46:26;100067.02;;;10.04;94.86
25944;BME280;13742;49.306;8.636;2022-11-15T04:47:27;100070.22;;;10.05;94.99
25944;BME280;13742;49.306;8.636;2022-11-15T04:48:26;100069.83;;;10.04;95.06
25944;BME280;13742;49.306;8.636;2022-11-15T04:49:26;100066.25;;;10.05;95.02
25944;BME280;13742;49.306;8.636;2022-11-15T04:50:26;100068.02;;;10.04;94.98
25944;BME280;13742;49.306;8.636;2022-11-15T04:51:26;100065.05;;;10.04;95.26
25944;BME280;13742;49.306;8.636;2022-11-15T04:52:26;100066.09;;;10.05;95.16
25944;BME280;13742;49.306;8.636;2022-11-15T04:53:26;100061.71;;;10.05;95.13
25944;BME280;13742;49.306;8.636;2022-11-15T04:54:26;100060.56;;;10.05;95.13
25944;BME280;13742;49.306;8.636;2022-11-15T04:55:26;100050.50;;;10.05;95.24
25944;BME280;13742;49.306;8.636;2022-11-15T04:56:26;100049.27;;;10.05;95.45
25944;BME280;13742;49.306;8.636;2022-11-15T04:57:26;100045.88;;;10.05;95.20
25944;BME280;13742;49.306;8.636;2022-11-15T04:58:26;100045.86;;;10.04;95.11
25944;BME280;13742;49.306;8.636;2022-11-15T04:59:26;100045.25;;;10.04;94.95
25944;BME280;13742;49.306;8.636;2022-11-15T05:00:26;100048.56;;;10.05;94.44
25944;BME280;13742;49.306;8.636;2022-11-15T05:01:26;100046.26;;;10.05;94.70
25944;BME280;13742;49.306;8.636;2022-11-15T05:02:41;100047.30;;;10.05;94.87
25944;BME280;13742;49.306;8.636;2022-11-15T05:03:31;100046.67;;;10.04;95.05
25944;BME280;13742;49.306;8.636;2022-11-15T05:04:26;100043.74;;;10.04;95.19
25944;BME280;13742;49.306;8.636;2022-11-15T05:05:26;100050.69;;;10.04;95.35
25944;BME280;13742;49.306;8.636;2022-11-15T05:06:26;100049.70;;;10.04;95.29
25944;BME280;13742;49.306;8.636;2022-11-15T05:07:26;100049.02;;;10.04;95.38
25944;BME280;13742;49.306;8.636;2022-11-15T05:08:26;100048.31;;;10.03;95.38
25944;BME280;13742;49.306;8.636;2022-11-15T05:09:26;100040.42;;;10.03;95.31
25944;BME280;13742;49.306;8.636;2022-11-15T05:10:26;100044.03;;;10.02;95.43
25944;BME280;13742;49.306;8.636;2022-11-15T05:11:27;100039.03;;;10.02;95.33
25944;BME280;13742;49.306;8.636;2022-11-15T05:12:26;100039.82;;;10.02;95.40
25944;BME280;13742;49.306;8.636;2022-11-15T05:13:26;100038.48;;;10.02;95.39
25944;BME280;13742;49.306;8.636;2022-11-15T05:14:26;100044.09;;;10.02;95.29
25944;BME280;13742;49.306;8.636;2022-11-15T05:15:26;100047.11;;;10.02;95.29
25944;BME280;13742;49.306;8.636;2022-11-15T05:16:26;100048.43;;;10.02;95.17
25944;BME280;13742;49.306;8.636;2022-11-15T05:17:26;100047.17;;;10.01;95.16
25944;BME280;13742;49.306;8.636;2022-11-15T05:18:26;100047.31;;;10.01;95.08
25944;BME280;13742;49.306;8.636;2022-11-15T05:19:26;100052.61;;;10.01;94.84
25944;BME280;13742;49.306;8.636;2022-11-15T05:20:26;100053.59;;;10.01;94.76
25944;BME280;13742;49.306;8.636;2022-11-15T05:21:26;100052.39;;;10.02;94.77
25944;BME280;13742;49.306;8.636;2022-11-15T05:22:26;100048.88;;;10.02;94.72
25944;BME280;13742;49.306;8.636;2022-11-15T05:23:26;100049.53;;;10.02;94.83
25944;BME280;13742;49.306;8.636;2022-11-15T05:24:26;100048.22;;;10.02;94.90
25944;BME280;13742;49.306;8.636;2022-11-15T05:25:26;100046.10;;;10.01;94.85
25944;BME280;13742;49.306;8.636;2022-11-15T05:26:26;100047.72;;;10.02;94.86
25944;BME280;13742;49.306;8.636;2022-11-15T05:27:26;100050.96;;;10.01;94.56
25944;BME280;13742;49.306;8.636;2022-11-15T05:28:26;100051.18;;;10.02;94.72
25944;BME280;13742;49.306;8.636;2022-11-15T05:29:26;100050.32;;;10.03;94.64
25944;BME280;13742;49.306;8.636;2022-11-15T05:30:26;100050.05;;;10.02;94.50
25944;BME280;13742;49.306;8.636;2022-11-15T05:31:26;100045.43;;;10.02;94.61
25944;BME280;13742;49.306;8.636;2022-11-15T05:32:26;100043.38;;;10.02;94.46
25944;BME280;13742;49.306;8.636;2022-11-15T05:33:26;100049.05;;;10.02;94.39
25944;BME280;13742;49.306;8.636;2022-11-15T05:34:26;100045.73;;;10.02;94.47
25944;BME280;13742;49.306;8.636;2022-11-15T05:36:31;100046.45;;;10.02;94.62
25944;BME280;13742;49.306;8.636;2022-11-15T05:37:26;100042.05;;;10.01;94.59
25944;BME280;13742;49.306;8.636;2022-11-15T05:38:26;100041.43;;;10.01;94.85
25944;BME280;13742;49.306;8.636;2022-11-15T05:39:26;100042.47;;;10.01;94.85
25944;BME280;13742;49.306;8.636;2022-11-15T05:40:26;100044.36;;;10.01;94.72
25944;BME280;13742;49.306;8.636;2022-11-15T05:41:31;100044.53;;;10.01;94.89
25944;BME280;13742;49.306;8.636;2022-11-15T05:42:26;100044.44;;;10.02;94.63
25944;BME280;13742;49.306;8.636;2022-11-15T05:43:26;100044.45;;;10.01;94.71
25944;BME280;13742;49.306;8.636;2022-11-15T05:44:26;100047.33;;;10.02;94.63
25944;BME280;13742;49.306;8.636;2022-11-15T05:45:26;100043.69;;;10.01;94.78
25944;BME280;13742;49.306;8.636;2022-11-15T05:46:26;100048.66;;;10.02;95.00
25944;BME280;13742;49.306;8.636;2022-11-15T05:47:26;100051.41;;;10.02;94.98
25944;BME280;13742;49.306;8.636;2022-11-15T05:48:26;100054.09;;;10.02;94.97
25944;BME280;13742;49.306;8.636;2022-11-15T05:49:27;100049.75;;;10.02;94.85
25944;BME280;13742;49.306;8.636;2022-11-15T05:50:26;100050.91;;;10.02;94.73
25944;BME280;13742;49.306;8.636;2022-11-15T05:51:26;100045.36;;;10.01;94.85